Arpin, WI

8:54 AM CDT on October 22, 2014 (GMT -0500)
WIDOT Pittsville - STH 13 @ STH 80 | Change Station
CLOSE
Current Station
Personal Weather Station
Location: Pittsville, WI
Elevation: 1040 ft
Nearby Weather Stations

Elev 1040 ft 44.45 °N, 90.13 °W | Updated 34 minutes ago

Partly Cloudy
Partly Cloudy
33 °F
Feels Like 33 °F
N
3
Wind Variable Wind from ENE
Gusts 4.0 mph

Today
High -- | Low -- °F
--% Chance of Precip.
Yesterday
High -- | Low -- °F
Precip. -- in
7:24 AM 6:04 PM
Waning Crescent, 2% visible
Pressure 30.37 in
Visibility 5.0 miles
Clouds Clear
Windchill 33 °F
Dew Point 33 °F
Humidity 99%
Rainfall -999.00 in
Snow Depth Not available.
UV 0 out of 12
Pollen .10 out of 12
Air Quality Not available.
Flu Activity Sporadic
METAR KMFI 221254Z AUTO 12006KT 5SM BR CLR 00/M01 A3032 RMK AO2 SLP282 I1000 T00001006

More Conditions Fewer Conditions

Pressure 30.37 in
Visibility 5.0 miles
Clouds Clear
Windchill 33 °F
Dew Point 33 °F
Humidity 99%
Rainfall -999.00 in
Snow Depth Not available.
UV 0 out of 12
Pollen .10 out of 12
Air Quality Not available.
Flu Activity Sporadic
METAR KMFI 221254Z AUTO 12006KT 5SM BR CLR 00/M01 A3032 RMK AO2 SLP282 I1000 T00001006

More Conditions Fewer Conditions

10-Day Weather Forecast

Almanac

Astronomy

Oct. 22, 2014 Rise Set
Actual Time 7:24 AM CDT 6:04 PM CDT
Civil Twilight 6:54 AM CDT 6:33 PM CDT
Nautical Twilight 6:20 AM CDT 7:07 PM CDT
Astronomical Twilight 5:47 AM CDT 7:41 PM CDT
Moon 6:02 AM CDT 5:32 PM CDT
Length of Visible Light 11h 39m
Length of Day
10h 39m
Tomorrow will be 2m 55s shorter.
Waning Crescent, 2% of the Moon is Illuminated
Today
Waning Crescent
Oct 23
New
Oct 30
First Quarter
Nov 6
Full
Nov 14
Last Quarter

Today's Extremes

State Highs State Lows

Community

WunderPhotos

Upload Photos

1,763,919 photos uploaded!

Nearby

Snow Depth

Station Depth Elevation
No new snow has been reported.

Earthquake Activity

City Distance Mag. Time & Date
No recent earthquake activity has been reported nearby.
Minimum magnitude displayed is 2.5.

Coastal Water Temperatures

Place Temperature
No Stations Reporting

Nearby Weather Stations